Time;durP1;ratioP1;P1;durP2;ratioP2;P2;SDS_P1;SDS_P2;PMS_P1;PMS_P2;Temp;Humidity;BMP_temperature;BMP_pressure;BME280_temperature;BME280_humidity;BME280_pressure;Samples;Min_cycle;Max_cycle;Signal;HPM_P1;HPM_P2
2022/01/31 00:01:28;;;;;;;24.27;14.13;;;;;;;-1.34;100.00;97754.41;1768061;81;21010;-69
2022/01/31 00:03:55;;;;;;;22.90;13.97;;;;;;;-1.35;100.00;97738.17;1769882;81;21046;-70
2022/01/31 00:06:22;;;;;;;24.60;14.30;;;;;;;-1.34;100.00;97734.52;1768148;80;21101;-69
2022/01/31 00:08:50;;;;;;;27.10;16.17;;;;;;;-1.32;100.00;97739.67;1770043;81;21022;-69
2022/01/31 00:11:18;;;;;;;24.77;15.37;;;;;;;-1.34;100.00;97720.44;1771275;80;21049;-68
2022/01/31 00:13:56;;;;;;;27.10;16.63;;;;;;;-1.37;100.00;97733.99;1780448;80;21009;-69
2022/01/31 00:16:21;;;;;;;26.33;15.10;;;;;;;-1.38;100.00;97732.31;1778218;80;20997;-69
2022/01/31 00:18:44;;;;;;;23.67;15.23;;;;;;;-1.39;100.00;97729.34;1755162;81;21014;-70
2022/01/31 00:21:10;;;;;;;27.10;15.50;;;;;;;-1.42;100.00;97735.76;1761100;81;21048;-70
2022/01/31 00:23:39;;;;;;;24.13;13.63;;;;;;;-1.43;100.00;97742.56;1780568;80;21040;-68
2022/01/31 00:26:06;;;;;;;23.43;13.17;;;;;;;-1.45;100.00;97745.36;1780871;81;20990;-69
2022/01/31 00:28:33;;;;;;;24.83;14.70;;;;;;;-1.45;100.00;97740.53;1736198;81;21494;-70
2022/01/31 00:31:00;;;;;;;23.67;13.93;;;;;;;-1.46;100.00;97735.73;1780508;81;20977;-69
2022/01/31 00:33:27;;;;;;;25.30;13.70;;;;;;;-1.47;100.00;97732.76;1780550;81;21451;-70
2022/01/31 00:35:54;;;;;;;23.43;13.40;;;;;;;-1.47;100.00;97734.08;1772508;80;21462;-69
2022/01/31 00:38:21;;;;;;;24.90;13.70;;;;;;;-1.47;100.00;97730.58;1745931;82;21467;-70
2022/01/31 00:40:48;;;;;;;25.33;14.03;;;;;;;-1.49;100.00;97717.47;1745898;82;20970;-69
2022/01/31 00:43:19;;;;;;;22.17;13.20;;;;;;;-1.49;100.00;97724.09;1745855;82;21015;-69
2022/01/31 00:48:24;;;;;;;23.40;12.97;;;;;;;-1.49;100.00;97727.25;1660619;86;21027;-68
2022/01/31 00:50:47;;;;;;;22.83;12.20;;;;;;;-1.49;100.00;97728.58;1656397;85;21573;-69
2022/01/31 00:53:14;;;;;;;23.17;12.80;;;;;;;-1.48;100.00;97735.05;1660725;86;21500;-69
2022/01/31 00:55:41;;;;;;;22.17;11.90;;;;;;;-1.49;100.00;97733.88;1634851;86;21696;-69
2022/01/31 00:58:08;;;;;;;21.57;12.17;;;;;;;-1.48;100.00;97727.60;1660353;86;21043;-69
2022/01/31 01:00:35;;;;;;;23.10;11.50;;;;;;;-1.48;100.00;97728.93;1634790;86;21130;-69
2022/01/31 01:03:03;;;;;;;21.90;12.23;;;;;;;-1.49;100.00;97726.75;1659684;86;21087;-69
2022/01/31 01:05:30;;;;;;;20.57;11.93;;;;;;;-1.48;100.00;97730.25;1635051;86;21535;-68
2022/01/31 01:07:58;;;;;;;25.43;12.07;;;;;;;-1.50;100.00;97729.58;1660428;86;21098;-69
2022/01/31 01:10:24;;;;;;;21.47;12.30;;;;;;;-1.50;100.00;97730.91;1660703;86;21023;-69
2022/01/31 01:12:54;;;;;;;22.60;11.83;;;;;;;-1.50;100.00;97733.55;1660126;86;21074;-69
2022/01/31 01:15:20;;;;;;;21.33;11.57;;;;;;;-1.50;100.00;97737.53;1660761;86;21530;-68
2022/01/31 01:17:48;;;;;;;23.60;13.07;;;;;;;-1.49;100.00;97731.23;1660832;86;21046;-69
2022/01/31 01:20:15;;;;;;;23.63;12.67;;;;;;;-1.50;100.00;97733.05;1660904;86;21046;-69
2022/01/31 01:22:44;;;;;;;22.93;11.93;;;;;;;-1.51;100.00;97722.09;1661173;86;21578;-70
2022/01/31 01:25:13;;;;;;;22.33;12.03;;;;;;;-1.51;100.00;97718.12;1687635;82;21489;-69
2022/01/31 01:27:41;;;;;;;23.53;12.53;;;;;;;-1.53;100.00;97720.09;1749826;82;21574;-68
2022/01/31 01:30:11;;;;;;;22.57;11.57;;;;;;;-1.55;100.00;97720.23;1747552;82;21537;-69
2022/01/31 01:32:49;;;;;;;21.57;11.80;;;;;;;-1.55;100.00;97710.97;1748990;82;21060;-69
2022/01/31 01:35:08;;;;;;;21.57;12.40;;;;;;;-1.55;100.00;97716.77;1743417;82;21006;-69
2022/01/31 01:37:36;;;;;;;20.20;10.80;;;;;;;-1.53;100.00;97705.02;1712572;82;21476;-70
2022/01/31 01:40:06;;;;;;;22.17;11.67;;;;;;;-1.50;100.00;97699.09;1711637;83;21044;-69
2022/01/31 01:42:34;;;;;;;20.07;11.57;;;;;;;-1.50;100.00;97701.75;1711523;83;21022;-70
2022/01/31 01:45:02;;;;;;;22.13;12.40;;;;;;;-1.53;100.00;97703.69;1710984;84;21070;-69
2022/01/31 01:47:31;;;;;;;21.60;11.87;;;;;;;-1.55;100.00;97689.77;1712370;83;21018;-69
2022/01/31 01:49:58;;;;;;;20.90;11.10;;;;;;;-1.56;100.00;97697.86;1711761;84;20998;-69
2022/01/31 01:52:26;;;;;;;22.30;11.73;;;;;;;-1.58;100.00;97695.86;1711656;84;21065;-70
2022/01/31 01:54:53;;;;;;;19.20;10.87;;;;;;;-1.61;100.00;97687.73;1711849;83;21078;-69
2022/01/31 01:57:23;;;;;;;20.10;11.57;;;;;;;-1.63;100.00;97691.50;1711446;83;21046;-69
2022/01/31 01:59:56;;;;;;;22.63;12.57;;;;;;;-1.64;100.00;97680.08;1713324;83;21035;-70
2022/01/31 02:02:38;;;;;;;19.87;11.23;;;;;;;-1.63;100.00;97683.55;1711424;84;21086;-68
2022/01/31 02:05:08;;;;;;;21.30;11.63;;;;;;;-1.62;100.00;97679.43;1711513;83;21030;-70
2022/01/31 02:07:37;;;;;;;22.23;12.43;;;;;;;-1.60;100.00;97676.63;1711679;84;21564;-69
2022/01/31 02:10:06;;;;;;;21.47;11.17;;;;;;;-1.59;100.00;97684.94;1711654;84;21022;-69
2022/01/31 02:12:44;;;;;;;21.10;11.90;;;;;;;-1.58;100.00;97683.93;1734483;81;21217;-68
2022/01/31 02:15:14;;;;;;;21.97;12.27;;;;;;;-1.62;100.00;97695.33;1762189;81;21022;-68
2022/01/31 02:17:59;;;;;;;23.17;11.30;;;;;;;-1.64;100.00;97684.55;1770669;81;21006;-68
2022/01/31 02:20:27;;;;;;;21.67;11.27;;;;;;;-1.67;100.00;97685.67;1770476;80;21511;-68
2022/01/31 02:22:54;;;;;;;21.90;11.83;;;;;;;-1.68;100.00;97681.38;1768224;80;20990;-68
2022/01/31 02:25:34;;;;;;;21.47;11.97;;;;;;;-1.70;100.00;97670.57;1769813;80;21078;-68
2022/01/31 02:28:15;;;;;;;21.57;12.43;;;;;;;-1.71;100.00;97669.75;1770666;80;20998;-70
2022/01/31 02:30:43;;;;;;;22.17;12.17;;;;;;;-1.73;100.00;97665.09;1768291;80;21555;-70
2022/01/31 02:33:10;;;;;;;18.83;11.43;;;;;;;-1.74;100.00;97657.62;1767110;81;21023;-70
2022/01/31 02:35:38;;;;;;;21.43;11.70;;;;;;;-1.73;100.00;97656.64;1760577;80;21021;-70
2022/01/31 02:38:05;;;;;;;21.97;11.00;;;;;;;-1.74;100.00;97651.49;1745904;82;21031;-70
2022/01/31 02:40:32;;;;;;;22.23;11.77;;;;;;;-1.75;100.00;97649.84;1746049;82;21002;-70
2022/01/31 02:43:01;;;;;;;21.77;12.30;;;;;;;-1.77;100.00;97649.99;1745665;81;21039;-70
2022/01/31 02:45:30;;;;;;;21.20;11.40;;;;;;;-1.77;100.00;97654.44;1745943;82;21011;-69
2022/01/31 02:47:59;;;;;;;21.33;12.03;;;;;;;-1.78;100.00;97648.31;1745728;82;21063;-70
2022/01/31 02:50:29;;;;;;;21.50;12.80;;;;;;;-1.78;100.00;97652.30;1745216;82;21079;-69
2022/01/31 02:53:10;;;;;;;23.87;13.27;;;;;;;-1.77;100.00;97651.79;1746885;81;21023;-69
2022/01/31 02:55:27;;;;;;;22.67;12.40;;;;;;;-1.76;100.00;97652.14;1744154;82;20987;-69
2022/01/31 02:57:55;;;;;;;24.07;13.13;;;;;;;-1.76;100.00;97644.20;1733402;82;21011;-69
2022/01/31 03:00:24;;;;;;;22.70;13.20;;;;;;;-1.75;100.00;97646.70;1746546;82;21038;-68
2022/01/31 03:02:58;;;;;;;24.83;13.50;;;;;;;-1.75;100.00;97644.55;1733606;82;21071;-70
2022/01/31 03:05:26;;;;;;;23.17;13.37;;;;;;;-1.74;100.00;97651.49;1745934;82;21027;-68
2022/01/31 03:07:53;;;;;;;22.30;13.10;;;;;;;-1.72;100.00;97648.20;1746032;81;21312;-69
2022/01/31 03:10:20;;;;;;;22.53;12.80;;;;;;;-1.72;100.00;97650.38;1746042;82;21074;-69
2022/01/31 03:12:47;;;;;;;22.47;14.20;;;;;;;-1.70;100.00;97642.75;1744454;82;21058;-70
2022/01/31 03:15:14;;;;;;;23.00;13.37;;;;;;;-1.69;100.00;97655.02;1722983;83;20998;-69
2022/01/31 03:18:00;;;;;;;23.60;13.57;;;;;;;-1.67;100.00;97652.55;1723190;83;21464;-69
2022/01/31 03:20:27;;;;;;;26.73;13.63;;;;;;;-1.65;100.00;97652.40;1722647;83;21081;-68
2022/01/31 03:22:54;;;;;;;22.13;12.83;;;;;;;-1.60;100.00;97638.20;1712373;84;21093;-71
2022/01/31 03:25:22;;;;;;;23.37;14.00;;;;;;;-1.59;100.00;97627.95;1711848;84;21051;-69
2022/01/31 03:27:49;;;;;;;24.07;13.30;;;;;;;-1.56;100.00;97632.45;1690463;84;21053;-69
2022/01/31 03:30:21;;;;;;;23.33;12.93;;;;;;;-1.53;100.00;97628.16;1712211;84;20962;-69
2022/01/31 03:32:49;;;;;;;24.12;14.07;;;;;;;-1.51;100.00;97621.88;1710859;82;21037;-70
2022/01/31 03:35:16;;;;;;;23.47;14.10;;;;;;;-1.51;100.00;97608.63;1722671;83;21066;-70
2022/01/31 03:37:43;;;;;;;22.50;13.33;;;;;;;-1.50;100.00;97620.41;1712857;83;21045;-70
2022/01/31 03:40:12;;;;;;;23.53;12.80;;;;;;;-1.48;100.00;97619.75;1691510;84;21077;-69
2022/01/31 03:42:40;;;;;;;23.03;13.37;;;;;;;-1.46;100.00;97619.60;1662709;83;20985;-68
2022/01/31 03:45:08;;;;;;;21.37;12.87;;;;;;;-1.46;100.00;97620.42;1698253;83;21032;-69
2022/01/31 03:47:43;;;;;;;22.47;13.40;;;;;;;-1.45;100.00;97614.15;1724223;82;21070;-69
2022/01/31 03:50:06;;;;;;;24.70;13.33;;;;;;;-1.44;100.00;97626.40;1722432;83;21037;-69
2022/01/31 03:52:36;;;;;;;24.13;13.77;;;;;;;-1.44;100.00;97626.40;1724405;83;21103;-69
2022/01/31 03:55:04;;;;;;;22.43;12.77;;;;;;;-1.42;100.00;97616.97;1724370;83;21052;-69
2022/01/31 03:57:34;;;;;;;24.33;13.10;;;;;;;-1.37;100.00;97612.04;1724480;83;21067;-70
2022/01/31 04:00:11;;;;;;;26.82;14.50;;;;;;;-1.36;100.00;97611.89;1722289;83;21037;-69
2022/01/31 04:02:40;;;;;;;21.63;13.00;;;;;;;-1.35;100.00;97608.27;1710550;84;21466;-70
2022/01/31 04:05:09;;;;;;;20.67;12.23;;;;;;;-1.34;100.00;97605.11;1713900;82;21037;-69
2022/01/31 04:07:36;;;;;;;21.73;12.30;;;;;;;-1.33;100.00;97593.50;1713722;84;21045;-69
2022/01/31 04:10:05;;;;;;;20.60;11.90;;;;;;;-1.30;100.00;97609.61;1724181;83;21060;-69
2022/01/31 04:12:33;;;;;;;22.80;12.23;;;;;;;-1.30;100.00;97591.87;1723588;83;21026;-70
2022/01/31 04:14:59;;;;;;;19.87;12.23;;;;;;;-1.29;100.00;97598.00;1715713;83;21014;-70
2022/01/31 04:17:31;;;;;;;22.20;12.67;;;;;;;-1.27;100.00;97594.22;1714370;84;21499;-68
2022/01/31 04:19:58;;;;;;;19.00;10.87;;;;;;;-1.25;100.00;97587.44;1714330;84;21078;-70
2022/01/31 04:22:30;;;;;;;19.00;10.47;;;;;;;-1.22;100.00;97587.10;1714307;84;21069;-70
2022/01/31 04:24:59;;;;;;;19.33;11.67;;;;;;;-1.20;100.00;97589.95;1714605;83;21041;-69
2022/01/31 04:27:27;;;;;;;20.53;11.70;;;;;;;-1.20;100.00;97579.34;1711189;83;21033;-70
2022/01/31 04:29:52;;;;;;;22.07;10.87;;;;;;;-1.19;100.00;97583.67;1714302;84;21041;-71
2022/01/31 04:32:19;;;;;;;21.33;11.57;;;;;;;-1.18;100.00;97576.54;1692308;84;21014;-70
2022/01/31 04:34:47;;;;;;;19.63;10.47;;;;;;;-1.16;100.00;97582.02;1714810;84;20987;-71
2022/01/31 04:37:14;;;;;;;18.43;9.90;;;;;;;-1.16;100.00;97589.97;1714715;84;20999;-71
2022/01/31 04:39:41;;;;;;;18.50;10.37;;;;;;;-1.14;100.00;97583.19;1714954;84;21344;-72
2022/01/31 04:42:08;;;;;;;18.33;9.83;;;;;;;-1.12;100.00;97588.33;1715743;82;21070;-70
2022/01/31 04:44:36;;;;;;;19.40;10.40;;;;;;;-1.12;100.00;97579.88;1714585;84;21018;-70
2022/01/31 04:47:04;;;;;;;20.40;9.93;;;;;;;-1.13;100.00;97589.31;1714290;84;21038;-69
2022/01/31 04:49:33;;;;;;;18.67;9.67;;;;;;;-1.15;100.00;97582.36;1714542;84;21017;-70
2022/01/31 04:52:00;;;;;;;18.80;10.53;;;;;;;-1.16;100.00;97603.23;1714302;84;21010;-69
2022/01/31 04:54:27;;;;;;;19.53;10.63;;;;;;;-1.16;100.00;97583.84;1714408;84;21035;-69
2022/01/31 04:56:54;;;;;;;17.90;10.17;;;;;;;-1.16;100.00;97600.58;1714306;84;20991;-69
2022/01/31 04:59:21;;;;;;;18.13;9.90;;;;;;;-1.16;100.00;97590.47;1714653;83;20975;-69
2022/01/31 05:01:49;;;;;;;19.00;10.07;;;;;;;-1.18;100.00;97589.30;1714551;84;21046;-70
2022/01/31 05:04:21;;;;;;;17.80;10.03;;;;;;;-1.21;100.00;97585.63;1714707;83;21006;-69
2022/01/31 05:06:49;;;;;;;19.15;10.20;;;;;;;-1.22;100.00;97587.95;1714633;84;20995;-70
2022/01/31 05:09:15;;;;;;;18.53;9.83;;;;;;;-1.22;100.00;97588.42;1714569;84;21011;-69
2022/01/31 05:11:42;;;;;;;21.73;11.00;;;;;;;-1.24;100.00;97588.61;1714571;84;21512;-69
2022/01/31 05:14:09;;;;;;;18.57;9.80;;;;;;;-1.24;100.00;97589.94;1728893;82;21030;-69
2022/01/31 05:16:37;;;;;;;18.70;10.20;;;;;;;-1.25;100.00;97584.28;1725186;82;21114;-69
2022/01/31 05:19:03;;;;;;;17.07;9.43;;;;;;;-1.26;100.00;97597.19;1748095;82;20971;-69
2022/01/31 05:21:30;;;;;;;18.07;9.90;;;;;;;-1.24;100.00;97591.73;1748066;82;21097;-69
2022/01/31 05:23:57;;;;;;;18.63;9.83;;;;;;;-1.23;100.00;97597.39;1748198;82;21011;-71
2022/01/31 05:26:24;;;;;;;20.10;10.67;;;;;;;-1.23;100.00;97590.26;1748101;82;21089;-72
2022/01/31 05:28:51;;;;;;;19.07;10.00;;;;;;;-1.21;100.00;97590.10;1748049;81;21094;-70
2022/01/31 05:31:18;;;;;;;18.63;9.93;;;;;;;-1.19;100.00;97585.00;1748400;81;21565;-70
2022/01/31 05:33:45;;;;;;;18.23;10.10;;;;;;;-1.17;100.00;97596.75;1725266;82;20983;-70
2022/01/31 05:36:12;;;;;;;18.67;9.70;;;;;;;-1.13;100.00;97590.64;1746524;81;21027;-69
2022/01/31 05:38:40;;;;;;;17.47;9.70;;;;;;;-1.12;100.00;97582.53;1743539;82;20983;-69
2022/01/31 05:41:10;;;;;;;19.13;9.87;;;;;;;-1.09;100.00;97588.84;1743661;82;21003;-71
2022/01/31 05:43:35;;;;;;;18.97;9.77;;;;;;;-1.07;100.00;97579.41;1743563;82;21483;-71
2022/01/31 05:46:03;;;;;;;17.30;9.77;;;;;;;-1.07;100.00;97577.59;1743721;82;21010;-70
2022/01/31 05:48:29;;;;;;;18.70;9.73;;;;;;;-1.04;100.00;97587.06;1743701;82;21025;-69
2022/01/31 05:50:56;;;;;;;18.03;9.60;;;;;;;-1.03;100.00;97584.23;1743673;82;21061;-70
2022/01/31 05:53:25;;;;;;;20.60;10.27;;;;;;;-1.02;100.00;97587.23;1743836;82;21014;-70
2022/01/31 05:55:53;;;;;;;20.23;10.77;;;;;;;-1.00;100.00;97587.08;1743470;81;21058;-70
2022/01/31 05:58:20;;;;;;;19.23;9.70;;;;;;;-0.97;100.00;97589.42;1743758;82;21030;-69
2022/01/31 06:00:47;;;;;;;16.93;9.30;;;;;;;-0.95;100.00;97590.09;1743224;82;21526;-70
2022/01/31 06:03:14;;;;;;;19.27;9.90;;;;;;;-0.91;100.00;97591.93;1743763;82;21062;-68
2022/01/31 06:05:41;;;;;;;19.30;10.20;;;;;;;-0.88;100.00;97598.25;1743666;82;21045;-70
2022/01/31 06:08:08;;;;;;;18.23;9.40;;;;;;;-0.86;100.00;97588.31;1743862;82;21538;-70
2022/01/31 06:10:41;;;;;;;19.10;10.40;;;;;;;-0.84;100.00;97589.80;1743558;82;21048;-70
2022/01/31 06:13:04;;;;;;;32.60;18.13;;;;;;;-0.82;100.00;97595.78;1740386;82;20995;-72
2022/01/31 06:15:32;;;;;;;29.60;15.07;;;;;;;-0.82;100.00;97589.64;1742920;82;21073;-69
2022/01/31 06:17:59;;;;;;;20.80;10.30;;;;;;;-0.80;100.00;97585.86;1728445;82;21045;-72
2022/01/31 06:20:26;;;;;;;17.60;9.40;;;;;;;-0.80;100.00;97591.64;1742578;82;21026;-71
2022/01/31 06:22:53;;;;;;;17.60;9.13;;;;;;;-0.78;100.00;97597.61;1713051;83;21526;-71
2022/01/31 06:25:20;;;;;;;19.27;9.47;;;;;;;-0.78;100.00;97600.27;1701317;84;21076;-71
2022/01/31 06:27:48;;;;;;;17.93;9.60;;;;;;;-0.78;100.00;97596.29;1713200;83;21756;-72
2022/01/31 06:30:15;;;;;;;17.27;9.30;;;;;;;-0.78;100.00;97602.45;1700494;83;21058;-72
2022/01/31 06:32:44;;;;;;;18.90;9.60;;;;;;;-0.75;100.00;97596.48;1722300;82;21006;-69
2022/01/31 06:35:13;;;;;;;19.80;10.60;;;;;;;-0.74;100.00;97604.28;1706650;83;21073;-72
2022/01/31 06:37:40;;;;;;;15.90;8.73;;;;;;;-0.72;100.00;97596.17;1710216;84;21058;-74
2022/01/31 06:40:08;;;;;;;17.70;8.87;;;;;;;-0.70;100.00;97598.17;1710462;84;21023;-70
2022/01/31 06:42:35;;;;;;;23.23;11.03;;;;;;;-0.71;100.00;97589.34;1688280;84;21503;-71
2022/01/31 06:45:04;;;;;;;19.37;9.60;;;;;;;-0.70;100.00;97596.84;1688004;84;21559;-69
2022/01/31 06:47:32;;;;;;;19.30;9.47;;;;;;;-0.69;100.00;97594.50;1709702;84;21519;-70
2022/01/31 06:49:59;;;;;;;21.57;9.63;;;;;;;-0.70;100.00;97580.41;1686831;84;21018;-71
2022/01/31 06:52:32;;;;;;;18.57;8.97;;;;;;;-0.67;100.00;97572.64;1686292;84;21061;-71
2022/01/31 06:54:56;;;;;;;20.10;10.07;;;;;;;-0.65;100.00;97594.03;1705469;83;20987;-70
2022/01/31 06:57:25;;;;;;;23.57;11.57;;;;;;;-0.62;100.00;97599.03;1709292;84;21514;-71
2022/01/31 06:59:51;;;;;;;20.13;11.13;;;;;;;-0.56;100.00;97606.84;1710114;83;21042;-71
2022/01/31 07:02:18;;;;;;;19.13;9.33;;;;;;;-0.53;100.00;97606.53;1711062;83;21069;-70
2022/01/31 07:04:46;;;;;;;17.83;8.87;;;;;;;-0.48;100.00;97601.58;1686799;84;21006;-69
2022/01/31 07:07:12;;;;;;;16.70;7.93;;;;;;;-0.46;100.00;97584.98;1687764;84;21057;-70
2022/01/31 07:09:47;;;;;;;21.33;9.70;;;;;;;-0.46;100.00;97599.59;1709613;84;21089;-70
2022/01/31 07:12:16;;;;;;;16.07;8.53;;;;;;;-0.44;100.00;97608.72;1709384;84;21113;-71
2022/01/31 07:14:43;;;;;;;17.80;9.10;;;;;;;-0.43;100.00;97605.05;1709636;82;21043;-70
2022/01/31 07:17:11;;;;;;;13.40;7.57;;;;;;;-0.43;100.00;97609.86;1748533;82;21090;-70
2022/01/31 07:19:40;;;;;;;18.07;8.67;;;;;;;-0.39;100.00;97604.59;1748605;82;21054;-70
2022/01/31 07:22:11;;;;;;;15.90;8.47;;;;;;;-0.32;100.00;97608.77;1749186;82;20980;-73
2022/01/31 07:27:04;;;;;;;19.20;9.70;;;;;;;-0.27;100.00;97613.06;1748998;82;21042;-71
2022/01/31 07:29:31;;;;;;;18.23;9.27;;;;;;;-0.25;100.00;97619.07;1739581;82;21532;-70
2022/01/31 07:31:58;;;;;;;21.37;11.47;;;;;;;-0.21;100.00;97615.59;1739707;82;21050;-68
2022/01/31 07:34:27;;;;;;;37.03;21.80;;;;;;;-0.19;100.00;97618.91;1739696;82;20992;-70
2022/01/31 07:36:54;;;;;;;26.17;13.90;;;;;;;-0.17;100.00;97626.22;1748993;81;20993;-71
2022/01/31 07:39:21;;;;;;;19.83;10.50;;;;;;;-0.12;100.00;97618.59;1748690;82;21007;-71
2022/01/31 07:41:48;;;;;;;18.47;10.07;;;;;;;-0.09;100.00;97627.58;1748010;82;21043;-71
2022/01/31 07:44:15;;;;;;;19.70;10.80;;;;;;;-0.12;100.00;97623.91;1739122;82;21019;-72
2022/01/31 07:46:42;;;;;;;22.03;12.20;;;;;;;-0.13;100.00;97630.20;1748719;82;21046;-70
2022/01/31 07:49:16;;;;;;;21.23;11.60;;;;;;;-0.11;100.00;97630.05;1747591;82;21018;-70
2022/01/31 07:51:44;;;;;;;26.07;14.10;;;;;;;-0.07;100.00;97634.88;1748507;82;21002;-70
2022/01/31 07:54:12;;;;;;;20.47;11.27;;;;;;;0.06;100.00;97637.56;1748773;82;21586;-71
2022/01/31 07:56:39;;;;;;;18.17;9.47;;;;;;;0.16;100.00;97633.77;1748632;82;21518;-72
2022/01/31 07:59:06;;;;;;;21.60;10.90;;;;;;;0.22;100.00;97634.11;1753355;80;21132;-70
2022/01/31 08:01:34;;;;;;;16.60;8.50;;;;;;;0.28;100.00;97635.59;1783633;80;21502;-70
2022/01/31 08:04:01;;;;;;;18.33;9.33;;;;;;;0.33;100.00;97635.92;1782155;80;21033;-70
2022/01/31 08:06:29;;;;;;;28.20;12.80;;;;;;;0.36;100.00;97638.27;1752564;80;21053;-70
2022/01/31 08:08:56;;;;;;;40.10;19.27;;;;;;;0.38;100.00;97644.23;1780099;81;21541;-70
2022/01/31 08:11:30;;;;;;;43.23;24.00;;;;;;;0.41;100.00;97656.86;1719251;82;21066;-69
2022/01/31 08:13:59;;;;;;;41.00;21.97;;;;;;;0.43;100.00;97657.55;1749520;82;21054;-70
2022/01/31 08:16:22;;;;;;;34.97;18.37;;;;;;;0.42;100.00;97659.36;1666634;85;21083;-70
2022/01/31 08:18:49;;;;;;;22.63;12.47;;;;;;;0.40;100.00;97664.02;1715328;83;21026;-70
2022/01/31 08:21:16;;;;;;;21.27;10.90;;;;;;;0.36;100.00;97672.82;1715133;84;21508;-70
2022/01/31 08:23:43;;;;;;;28.17;14.50;;;;;;;0.33;100.00;97675.80;1714318;84;21570;-69
2022/01/31 08:26:15;;;;;;;25.93;14.47;;;;;;;0.31;100.00;97676.47;1715179;84;21602;-70
2022/01/31 08:28:45;;;;;;;19.53;10.80;;;;;;;0.31;100.00;97683.11;1715186;84;20998;-71
2022/01/31 08:31:17;;;;;;;23.13;13.40;;;;;;;0.32;100.00;97681.27;1694760;84;21014;-70
2022/01/31 08:33:48;;;;;;;21.83;11.33;;;;;;;0.34;100.00;97677.48;1684929;85;21567;-70
2022/01/31 08:36:12;;;;;;;22.67;9.13;;;;;;;0.42;100.00;97673.98;1716066;83;21066;-72
2022/01/31 08:38:40;;;;;;;19.53;10.80;;;;;;;0.50;100.00;97687.30;1718328;82;21089;-72
2022/01/31 08:41:08;;;;;;;18.87;9.73;;;;;;;0.58;100.00;97685.64;1718954;83;21030;-70
2022/01/31 08:43:36;;;;;;;17.07;8.93;;;;;;;0.64;100.00;97682.30;1718394;83;21030;-70
2022/01/31 08:46:04;;;;;;;14.07;7.20;;;;;;;0.69;100.00;97682.16;1696169;83;21530;-69
2022/01/31 08:48:32;;;;;;;21.50;11.03;;;;;;;0.75;100.00;97672.17;1723666;82;21077;-71
2022/01/31 08:50:59;;;;;;;15.30;7.50;;;;;;;0.79;100.00;97689.14;1745796;82;21038;-71
2022/01/31 08:53:27;;;;;;;16.40;9.03;;;;;;;0.83;100.00;97687.30;1699013;83;21037;-69
2022/01/31 08:55:57;;;;;;;16.83;9.37;;;;;;;0.82;100.00;97716.24;1691878;84;21038;-70
2022/01/31 08:58:24;;;;;;;21.67;11.43;;;;;;;0.83;100.00;97705.09;1670246;85;21067;-70
2022/01/31 09:00:59;;;;;;;14.47;7.07;;;;;;;0.82;100.00;97726.06;1670198;85;21365;-70
2022/01/31 09:03:39;;;;;;;28.50;17.60;;;;;;;0.79;100.00;97727.72;1670140;85;21054;-70
2022/01/31 09:05:50;;;;;;;18.17;9.33;;;;;;;0.78;100.00;97716.73;1666939;85;21081;-70
2022/01/31 09:08:17;;;;;;;10.70;5.67;;;;;;;0.80;100.00;97731.55;1691506;84;21050;-71
2022/01/31 09:10:45;;;;;;;12.43;6.53;;;;;;;0.83;100.00;97728.53;1652664;87;21098;-69
2022/01/31 09:13:14;;;;;;;31.13;16.33;;;;;;;0.81;100.00;97736.36;1693963;83;21002;-70
2022/01/31 09:15:43;;;;;;;39.90;20.00;;;;;;;0.83;100.00;97731.70;1750857;81;21127;-69
2022/01/31 09:18:10;;;;;;;15.87;7.30;;;;;;;0.88;100.00;97744.01;1752412;81;21069;-70
2022/01/31 09:20:37;;;;;;;10.90;5.60;;;;;;;0.85;100.00;97744.33;1773894;81;21048;-70
2022/01/31 09:23:06;;;;;;;8.57;5.23;;;;;;;0.83;100.00;97741.02;1774187;79;21057;-70
2022/01/31 09:25:33;;;;;;;11.27;5.33;;;;;;;0.84;100.00;97742.18;1774029;81;21045;-70
2022/01/31 09:28:02;;;;;;;8.83;4.67;;;;;;;0.82;100.00;97749.50;1741367;81;21021;-70
2022/01/31 09:30:30;;;;;;;11.30;5.83;;;;;;;0.82;100.00;97754.82;1774298;81;21037;-70
2022/01/31 09:32:58;;;;;;;8.90;5.13;;;;;;;0.80;100.00;97760.81;1774045;81;21052;-70
2022/01/31 09:35:26;;;;;;;8.37;5.17;;;;;;;0.80;100.00;97755.48;1772762;81;20970;-71
2022/01/31 09:37:53;;;;;;;13.60;6.70;;;;;;;0.77;100.00;97771.77;1745378;82;21006;-71
2022/01/31 09:40:23;;;;;;;13.30;7.60;;;;;;;0.76;100.00;97767.44;1745153;82;21030;-71
2022/01/31 09:48:40;;;;;;;9.87;4.93;;;;;;;0.71;100.00;97774.59;1774841;81;20970;-71
2022/01/31 09:51:18;;;;;;;10.07;5.43;;;;;;;0.69;100.00;97774.41;1712189;83;20995;-70
2022/01/31 09:53:48;;;;;;;12.17;6.00;;;;;;;0.66;100.00;97773.43;1714276;83;21168;-68
2022/01/31 09:56:21;;;;;;;19.20;7.90;;;;;;;0.67;100.00;97779.06;1718517;83;21491;-71
2022/01/31 09:58:49;;;;;;;22.52;9.95;;;;;;;0.70;100.00;97768.11;1717943;83;21066;-70
2022/01/31 10:01:28;;;;;;;16.83;7.80;;;;;;;0.78;100.00;97779.25;1715268;83;21014;-70
2022/01/31 10:04:18;;;;;;;25.00;11.47;;;;;;;0.80;100.00;97757.30;1692448;83;21550;-72
2022/01/31 10:06:54;;;;;;;25.40;14.47;;;;;;;0.84;100.00;97771.45;1690761;83;21081;-70
2022/01/31 10:09:27;;;;;;;16.73;7.93;;;;;;;0.90;100.00;97777.45;1687620;84;21102;-70
2022/01/31 10:17:37;;;;;;;14.27;6.67;;;;;;;1.37;100.00;97755.15;1652873;86;20999;-69
2022/01/31 10:20:29;;;;;;;13.07;6.53;;;;;;;1.67;100.00;97765.58;1639094;87;21590;-70
2022/01/31 10:23:07;;;;;;;11.10;5.87;;;;;;;1.80;100.00;97761.04;1641336;87;21100;-70
2022/01/31 10:25:35;;;;;;;9.80;5.43;;;;;;;1.82;100.00;97726.55;1563463;92;21082;-73
2022/01/31 10:28:04;;;;;;;24.43;11.93;;;;;;;1.76;100.00;97773.88;1562442;92;21098;-70
2022/01/31 10:30:33;;;;;;;13.43;6.07;;;;;;;1.67;100.00;97769.06;1522516;92;21547;-70
2022/01/31 10:33:00;;;;;;;17.07;7.13;;;;;;;1.62;100.00;97770.07;1581255;90;21075;-70
2022/01/31 10:35:34;;;;;;;18.10;8.03;;;;;;;1.57;100.00;97803.55;1583797;90;21140;-71
2022/01/31 10:38:09;;;;;;;15.93;7.17;;;;;;;1.54;100.00;97811.39;1533161;93;21091;-71
2022/01/31 10:56:52;;;;;;;15.23;6.17;;;;;;;1.80;100.00;97883.62;1491345;94;21078;-69
2022/01/31 10:59:36;;;;;;;13.30;6.20;;;;;;;1.75;100.00;97896.09;1502519;94;21091;-71
2022/01/31 11:02:08;;;;;;;18.13;7.83;;;;;;;1.73;100.00;97913.27;1520921;94;21608;-70
2022/01/31 11:04:42;;;;;;;18.77;7.90;;;;;;;1.79;100.00;97914.77;1521027;94;21630;-72
2022/01/31 11:07:15;;;;;;;15.30;6.93;;;;;;;1.87;100.00;97908.08;1522168;94;21070;-70
2022/01/31 11:09:43;;;;;;;18.25;7.50;;;;;;;1.98;100.00;97912.23;1525702;94;21613;-70
2022/01/31 11:12:11;;;;;;;13.40;6.40;;;;;;;2.11;100.00;97921.55;1580938;89;21100;-70
2022/01/31 11:14:41;;;;;;;18.30;8.53;;;;;;;2.18;100.00;97915.88;1622069;87;21149;-70
2022/01/31 11:17:17;;;;;;;24.13;12.23;;;;;;;2.25;100.00;97925.70;1597365;90;21332;-71
2022/01/31 11:19:55;;;;;;;8.07;3.80;;;;;;;2.27;100.00;97912.20;1576082;89;21129;-69
2022/01/31 11:22:26;;;;;;;9.50;4.47;;;;;;;2.16;100.00;97927.21;1610676;85;21515;-71
2022/01/31 11:24:51;;;;;;;25.77;10.90;;;;;;;2.04;100.00;97933.41;1680678;85;21550;-70
2022/01/31 11:27:24;;;;;;;22.33;11.70;;;;;;;1.95;100.00;97936.58;1686402;85;21065;-70
2022/01/31 11:29:56;;;;;;;12.30;6.57;;;;;;;1.92;100.00;97930.25;1686082;85;21553;-69
2022/01/31 11:32:25;;;;;;;9.50;5.33;;;;;;;1.91;100.00;97931.23;1645796;85;21006;-70
2022/01/31 11:34:53;;;;;;;8.57;4.80;;;;;;;1.93;100.00;97947.06;1637292;85;21042;-68
2022/01/31 11:37:21;;;;;;;6.53;4.60;;;;;;;1.92;100.00;97938.24;1633677;85;21073;-69
2022/01/31 11:39:58;;;;;;;16.50;7.80;;;;;;;1.92;100.00;97928.91;1688619;84;21043;-69
2022/01/31 11:42:27;;;;;;;10.73;5.37;;;;;;;1.93;100.00;97937.25;1682751;84;21056;-69
2022/01/31 11:45:05;;;;;;;11.20;5.13;;;;;;;1.87;100.00;97932.58;1684879;85;21498;-71
2022/01/31 11:47:40;;;;;;;16.47;7.17;;;;;;;1.78;100.00;97940.25;1683305;85;21573;-68
2022/01/31 11:50:14;;;;;;;15.90;7.17;;;;;;;1.70;100.00;97941.91;1683658;85;21046;-69
2022/01/31 11:52:51;;;;;;;13.33;6.97;;;;;;;1.67;100.00;97933.42;1685256;85;21590;-71
2022/01/31 11:55:22;;;;;;;10.10;5.30;;;;;;;1.62;100.00;97937.91;1684084;85;21041;-64